createdAt,value
2019-06-15T00:02:28.984Z,0.20
2019-06-15T00:05:00.025Z,0.20
2019-06-15T00:07:29.306Z,0.10
2019-06-15T00:10:00.574Z,0.50
2019-06-15T00:12:30.420Z,0.20
2019-06-15T00:15:01.329Z,0.17
2019-06-15T00:17:35.882Z,0.00
2019-06-15T00:20:05.631Z,0.30
2019-06-15T00:22:36.259Z,0.20
2019-06-15T00:25:12.057Z,0.00
2019-06-15T00:27:40.335Z,0.13
2019-06-15T00:30:11.231Z,0.20
2019-06-15T00:32:44.795Z,0.20
2019-06-15T00:35:20.442Z,0.03
2019-06-15T00:37:51.495Z,0.20
2019-06-15T00:40:26.096Z,0.20
2019-06-15T00:43:02.753Z,0.30
2019-06-15T00:45:39.847Z,0.30
2019-06-15T00:48:16.785Z,0.33
2019-06-15T00:50:52.143Z,0.43
2019-06-15T00:53:23.045Z,0.40
2019-06-15T00:55:55.059Z,0.13
2019-06-15T00:58:28.114Z,0.10
2019-06-15T01:01:00.129Z,0.27
2019-06-15T01:03:30.072Z,0.23
2019-06-15T01:06:03.753Z,0.10
2019-06-15T01:08:34.072Z,0.10
2019-06-15T01:11:08.944Z,0.10
2019-06-15T01:13:46.108Z,0.10
2019-06-15T01:16:17.207Z,0.50
2019-06-15T01:18:48.907Z,0.10
2019-06-15T01:21:23.192Z,0.40
2019-06-15T01:23:52.540Z,0.23
2019-06-15T01:26:28.177Z,0.20
2019-06-15T01:29:00.049Z,0.07
2019-06-15T01:31:30.082Z,0.20
2019-06-15T01:33:58.742Z,0.30
2019-06-15T01:36:28.374Z,0.37
2019-06-15T01:39:04.321Z,0.20
2019-06-15T01:41:43.180Z,0.30
2019-06-15T01:44:14.638Z,0.10
2019-06-15T01:46:46.692Z,0.43
2019-06-15T01:49:16.865Z,0.17
2019-06-15T01:54:16.990Z,0.20
2019-06-15T01:56:46.603Z,0.17
2019-06-15T01:59:16.207Z,0.30
2019-06-15T02:02:08.313Z,0.20
2019-06-15T02:04:44.091Z,0.17
2019-06-15T02:07:15.370Z,0.50
2019-06-15T02:09:45.080Z,0.47
2019-06-15T02:12:17.476Z,0.10
2019-06-15T02:14:50.955Z,0.00
2019-06-15T02:17:23.955Z,0.27
2019-06-15T02:19:55.106Z,0.10
2019-06-15T02:22:28.508Z,0.20
2019-06-15T02:25:04.081Z,0.13
2019-06-15T02:27:35.658Z,0.30
2019-06-15T02:30:10.007Z,0.30
2019-06-15T02:32:41.470Z,0.33
2019-06-15T02:35:19.462Z,0.20
2019-06-15T02:37:52.943Z,0.20
2019-06-15T02:40:25.615Z,0.50
2019-06-15T02:42:56.088Z,0.20
2019-06-15T02:45:29.228Z,0.20
2019-06-15T02:48:01.379Z,0.20
2019-06-15T02:50:39.932Z,0.10
2019-06-15T02:53:28.588Z,0.30
2019-06-15T02:56:04.406Z,0.13
2019-06-15T02:58:45.060Z,0.30
2019-06-15T03:02:54.627Z,0.20
2019-06-15T03:04:48.859Z,0.10
2019-06-15T03:18:21.184Z,0.40
2019-06-15T03:21:28.711Z,0.20
2019-06-15T03:23:49.006Z,0.20
2019-06-15T03:26:17.917Z,0.30
2019-06-15T03:28:46.642Z,0.20
2019-06-15T03:31:20.321Z,0.20
2019-06-15T03:33:52.946Z,0.20
2019-06-15T03:36:21.317Z,0.20
2019-06-15T03:38:49.719Z,0.13
2019-06-15T03:41:18.282Z,0.30
2019-06-15T03:43:47.798Z,0.40
2019-06-15T03:46:16.074Z,0.00
2019-06-15T03:48:47.961Z,0.17
2019-06-15T03:51:16.665Z,0.10
2019-06-15T03:53:48.029Z,0.33
2019-06-15T03:56:21.926Z,0.20
2019-06-15T03:58:50.396Z,0.50
2019-06-15T04:01:47.375Z,0.30
2019-06-15T04:04:32.107Z,0.27
2019-06-15T04:07:13.956Z,0.20
2019-06-15T04:09:42.454Z,0.70
2019-06-15T04:12:10.636Z,0.53
2019-06-15T04:14:42.331Z,0.47
2019-06-15T04:17:11.436Z,0.63
2019-06-15T04:19:40.838Z,0.30
2019-06-15T04:22:09.799Z,0.10
2019-06-15T04:24:38.462Z,0.20
2019-06-15T04:27:07.152Z,0.43
2019-06-15T04:29:36.183Z,0.33
2019-06-15T04:32:14.202Z,0.40
2019-06-15T04:34:42.694Z,0.47
2019-06-15T04:37:10.806Z,0.13
2019-06-15T04:39:39.479Z,0.20
2019-06-15T04:42:09.615Z,0.20
2019-06-15T04:44:37.951Z,0.40
2019-06-15T04:47:06.406Z,0.33
2019-06-15T04:49:34.444Z,0.13
2019-06-15T04:52:04.440Z,0.13
2019-06-15T04:54:32.726Z,0.53
2019-06-15T04:57:04.489Z,0.30
2019-06-15T04:59:33.849Z,0.43
2019-06-15T05:02:09.266Z,0.20
2019-06-15T05:04:38.754Z,0.30
2019-06-15T05:07:07.661Z,0.10
2019-06-15T05:09:36.666Z,0.17
2019-06-15T05:12:07.701Z,0.40
2019-06-15T05:15:20.958Z,0.50
2019-06-15T05:18:04.063Z,0.20
2019-06-15T05:20:55.704Z,0.60
2019-06-15T05:24:15.016Z,0.13
2019-06-15T05:27:16.439Z,0.20
2019-06-15T05:30:04.115Z,0.07
2019-06-15T05:32:32.156Z,0.27
2019-06-15T05:35:01.056Z,0.47
2019-06-15T05:37:31.299Z,0.47
2019-06-15T05:40:08.092Z,0.27
2019-06-15T05:42:39.033Z,0.33
2019-06-15T05:45:18.043Z,0.50
2019-06-15T05:47:50.435Z,0.40
2019-06-15T05:50:30.115Z,0.10
2019-06-15T05:53:01.776Z,0.30
2019-06-15T05:55:34.764Z,0.27
2019-06-15T05:58:09.793Z,0.80
2019-06-15T06:00:49.133Z,0.40
2019-06-15T06:03:24.990Z,0.20
2019-06-15T06:06:03.203Z,0.17
2019-06-15T06:08:36.786Z,0.20
2019-06-15T06:11:10.439Z,0.20
2019-06-15T06:13:44.704Z,0.20
2019-06-15T06:16:13.968Z,0.10
2019-06-15T06:18:51.649Z,0.30
2019-06-15T06:21:24.676Z,0.20
2019-06-15T06:30:22.398Z,0.27
2019-06-15T06:48:06.859Z,0.70
2019-06-15T06:50:41.575Z,0.50
2019-06-15T06:53:12.465Z,0.63
2019-06-15T06:55:44.534Z,0.43
2019-06-15T06:58:17.892Z,0.93
2019-06-15T07:00:52.932Z,0.53
2019-06-15T07:03:23.791Z,0.47
2019-06-15T07:06:49.425Z,0.57
2019-06-15T07:08:39.286Z,1.10
2019-06-15T07:11:08.178Z,0.17
2019-06-15T07:13:39.633Z,0.50
2019-06-15T07:16:09.324Z,0.27
2019-06-15T07:18:42.566Z,0.60
2019-06-15T07:21:16.030Z,0.47
2019-06-15T07:23:52.103Z,0.47
2019-06-15T07:26:33.295Z,1.03
2019-06-15T07:29:23.163Z,0.40
2019-06-15T07:32:23.897Z,0.50
2019-06-15T07:35:05.912Z,0.60
2019-06-15T07:37:42.628Z,0.90
2019-06-15T07:40:18.673Z,1.40
2019-06-15T07:42:54.466Z,1.17
2019-06-15T07:45:43.637Z,0.47
2019-06-15T07:48:21.609Z,0.97
2019-06-15T07:50:58.150Z,0.97
2019-06-15T07:53:41.848Z,1.33
2019-06-15T07:56:17.378Z,1.23
2019-06-15T08:02:27.029Z,0.60
2019-06-15T08:05:21.881Z,1.50
2019-06-15T08:08:04.956Z,0.50
2019-06-15T08:10:48.155Z,0.57
2019-06-15T08:13:19.828Z,0.63
2019-06-15T08:15:53.417Z,0.53
2019-06-15T08:18:40.371Z,0.60
2019-06-15T08:21:21.241Z,0.33
2019-06-15T08:23:54.971Z,0.60
2019-06-15T08:26:26.166Z,0.73
2019-06-15T08:28:57.323Z,0.60
2019-06-15T08:32:52.968Z,0.20
2019-06-15T08:34:31.272Z,0.73
2019-06-15T08:37:18.140Z,1.07
2019-06-15T08:50:34.339Z,0.83
2019-06-15T09:01:52.876Z,0.40
2019-06-15T09:04:29.096Z,0.83
2019-06-15T09:07:07.883Z,0.77
2019-06-15T09:09:40.527Z,1.00
2019-06-15T09:12:24.847Z,0.43
2019-06-15T09:15:00.162Z,1.10
2019-06-15T09:17:37.786Z,0.97
2019-06-15T09:20:15.021Z,0.63
2019-06-15T09:22:44.403Z,0.73
2019-06-15T09:25:19.719Z,0.63
2019-06-15T09:27:50.448Z,0.67
2019-06-15T09:30:23.773Z,1.23
2019-06-15T09:33:03.540Z,1.13
2019-06-15T09:35:43.684Z,0.70
2019-06-15T09:38:15.024Z,1.10
2019-06-15T09:40:49.340Z,0.70
2019-06-15T09:43:25.443Z,0.73
2019-06-15T09:45:59.561Z,1.50
2019-06-15T09:48:37.840Z,1.07
2019-06-15T09:51:05.366Z,0.47
2019-06-15T09:53:46.313Z,0.83
2019-06-15T09:56:23.822Z,0.97
2019-06-15T09:58:55.633Z,0.57
2019-06-15T10:01:42.408Z,0.30
2019-06-15T10:04:20.505Z,0.60
2019-06-15T10:07:03.214Z,0.40
2019-06-15T10:09:24.847Z,0.40
2019-06-15T10:11:59.262Z,0.53
2019-06-15T10:14:29.755Z,0.50
2019-06-15T10:17:02.807Z,0.73
2019-06-15T10:19:38.038Z,0.70
2019-06-15T10:22:11.029Z,0.67
2019-06-15T10:24:48.841Z,0.43
2019-06-15T10:27:24.811Z,0.70
2019-06-15T10:30:02.981Z,0.60
2019-06-15T10:32:35.508Z,0.30
2019-06-15T10:35:14.834Z,0.40
2019-06-15T10:37:49.013Z,0.57
2019-06-15T10:40:34.218Z,1.23
2019-06-15T10:42:54.926Z,0.73
2019-06-15T10:45:26.404Z,0.80
2019-06-15T10:47:56.992Z,0.50
2019-06-15T10:50:27.725Z,0.70
2019-06-15T10:52:56.036Z,1.27
2019-06-15T10:55:26.718Z,0.60
2019-06-15T10:58:04.355Z,0.70
2019-06-15T11:00:41.067Z,0.83
2019-06-15T11:03:19.399Z,0.93
2019-06-15T11:05:57.805Z,0.50
2019-06-15T11:08:37.073Z,1.03
2019-06-15T11:11:25.076Z,0.33
2019-06-15T11:14:03.021Z,1.00
2019-06-15T11:16:41.691Z,1.10
2019-06-15T11:19:13.634Z,0.40
2019-06-15T11:21:49.998Z,0.40
2019-06-15T11:24:25.815Z,0.40
2019-06-15T11:27:02.400Z,0.53
2019-06-15T11:29:46.290Z,0.60
2019-06-15T11:43:13.870Z,0.60
2019-06-15T11:55:11.645Z,0.83
2019-06-15T12:10:48.066Z,0.70
2019-06-15T12:16:16.124Z,0.63
2019-06-15T12:19:02.580Z,0.93
2019-06-15T12:21:40.835Z,0.83
2019-06-15T12:24:16.294Z,0.97
2019-06-15T12:30:45.911Z,0.33
2019-06-15T12:33:14.121Z,0.80
2019-06-15T12:35:43.066Z,1.30
2019-06-15T12:38:17.041Z,0.70
2019-06-15T12:40:47.986Z,0.83
2019-06-15T12:43:18.253Z,1.30
2019-06-15T12:45:57.748Z,1.53
2019-06-15T12:48:26.354Z,0.30
2019-06-15T12:51:02.909Z,0.87
2019-06-15T12:53:34.661Z,1.10
2019-06-15T12:56:12.555Z,0.67
2019-06-15T12:58:51.774Z,1.20
2019-06-15T13:01:22.509Z,1.70
2019-06-15T13:03:50.729Z,0.90
2019-06-15T13:06:24.418Z,0.57
2019-06-15T13:09:00.496Z,0.80
2019-06-15T13:11:30.031Z,0.57
2019-06-15T13:14:01.995Z,0.53
2019-06-15T13:16:38.923Z,0.23
2019-06-15T13:19:01.697Z,0.50
2019-06-15T13:21:30.610Z,0.23
2019-06-15T13:24:00.520Z,0.10
2019-06-15T13:26:33.508Z,0.70
2019-06-15T13:29:05.446Z,0.40
2019-06-15T13:31:37.929Z,0.50
2019-06-15T13:34:07.206Z,0.57
2019-06-15T13:36:40.519Z,0.70
2019-06-15T13:42:29.743Z,0.10
2019-06-15T13:45:40.514Z,0.40
2019-06-15T13:48:11.658Z,0.63
2019-06-15T13:50:47.381Z,0.50
2019-06-15T13:53:17.927Z,0.40
2019-06-15T13:55:47.726Z,0.50
2019-06-15T13:58:17.554Z,0.30
2019-06-15T14:00:45.762Z,0.47
2019-06-15T14:03:20.644Z,0.70
2019-06-15T14:05:49.489Z,0.23
2019-06-15T14:08:20.581Z,0.23
2019-06-15T14:10:52.445Z,0.40
2019-06-15T14:13:24.295Z,0.40
2019-06-15T14:15:54.039Z,0.20
2019-06-15T14:18:22.658Z,0.30
2019-06-15T14:20:55.511Z,0.47
2019-06-15T14:23:23.699Z,0.20
2019-06-15T14:25:55.760Z,0.50
2019-06-15T14:28:27.451Z,0.60
2019-06-15T14:30:55.971Z,0.30
2019-06-15T14:33:25.950Z,0.57
2019-06-15T14:35:53.850Z,0.30
2019-06-15T14:38:22.358Z,0.30
2019-06-15T14:40:51.238Z,0.10
2019-06-15T14:43:23.680Z,0.30
2019-06-15T14:45:59.775Z,0.40
2019-06-15T14:48:29.896Z,0.50
2019-06-15T14:51:03.565Z,0.20
2019-06-15T14:53:32.405Z,0.00
2019-06-15T14:56:06.816Z,0.20
2019-06-15T14:58:36.612Z,0.33
2019-06-15T15:01:19.991Z,0.50
2019-06-15T15:04:09.723Z,0.13
2019-06-15T15:06:37.844Z,0.03
2019-06-15T15:09:17.254Z,0.10
2019-06-15T15:11:54.911Z,0.10
2019-06-15T15:14:26.033Z,0.67
2019-06-15T15:16:57.001Z,0.03
2019-06-15T15:19:28.151Z,0.03
2019-06-15T15:22:03.044Z,0.37
2019-06-15T15:24:31.903Z,0.10
2019-06-15T15:27:07.977Z,0.20
2019-06-15T15:29:46.237Z,0.13
2019-06-15T15:32:30.501Z,0.10
2019-06-15T15:34:58.959Z,0.00
2019-06-15T15:37:30.495Z,0.20
2019-06-15T15:40:01.000Z,0.37
2019-06-15T15:42:41.548Z,0.10
2019-06-15T15:45:07.842Z,0.10
2019-06-15T15:47:43.359Z,0.00
2019-06-15T15:50:19.079Z,0.10
2019-06-15T15:52:56.583Z,0.20
2019-06-15T15:58:16.902Z,0.37
2019-06-15T16:00:46.830Z,0.10
2019-06-15T16:03:18.253Z,0.10
2019-06-15T16:05:48.683Z,0.27
2019-06-15T16:08:56.966Z,0.30
2019-06-15T16:11:20.719Z,0.33
2019-06-15T16:14:07.096Z,0.27
2019-06-15T16:16:46.746Z,0.33
2019-06-15T16:19:17.198Z,0.27
2019-06-15T16:22:14.259Z,0.50
2019-06-15T16:24:40.588Z,0.70
2019-06-15T16:27:16.807Z,0.30
2019-06-15T16:29:47.021Z,0.30
2019-06-15T16:32:40.264Z,1.00
2019-06-15T16:35:22.177Z,0.83
2019-06-15T16:37:50.543Z,0.40
2019-06-15T16:40:34.528Z,0.40
2019-06-15T16:43:07.117Z,0.30
2019-06-15T16:45:37.912Z,0.70
2019-06-15T16:48:16.763Z,0.03
2019-06-15T16:50:57.640Z,0.40
2019-06-15T16:53:29.945Z,0.50
2019-06-15T16:56:08.415Z,0.30
2019-06-15T16:58:40.677Z,0.17
2019-06-15T17:01:08.971Z,0.10
2019-06-15T17:03:40.944Z,0.10
2019-06-15T17:06:17.906Z,0.00
2019-06-15T17:08:56.604Z,0.00
2019-06-15T17:11:23.022Z,0.03
2019-06-15T17:14:02.000Z,0.10
2019-06-15T17:16:31.391Z,0.00
2019-06-15T17:19:07.175Z,0.03
2019-06-15T17:21:38.786Z,0.00
2019-06-15T17:24:08.258Z,0.00
2019-06-15T17:26:37.794Z,0.00
2019-06-15T17:29:07.639Z,0.10
2019-06-15T17:31:38.236Z,0.00
2019-06-15T17:34:07.211Z,0.10
2019-06-15T17:36:37.491Z,0.10
2019-06-15T17:39:11.705Z,0.00
2019-06-15T17:41:47.247Z,0.00
2019-06-15T17:44:16.864Z,0.00
2019-06-15T17:46:49.165Z,0.00
2019-06-15T17:49:17.876Z,0.00
2019-06-15T17:51:46.171Z,0.00
2019-06-15T17:54:17.180Z,0.00
2019-06-15T17:56:46.222Z,0.00
2019-06-15T17:59:18.047Z,0.10
2019-06-15T18:01:47.010Z,0.47
2019-06-15T18:04:16.837Z,0.10
2019-06-15T18:06:47.103Z,0.10
2019-06-15T18:09:18.053Z,0.00
2019-06-15T18:11:46.597Z,0.17
2019-06-15T18:14:17.493Z,0.00
2019-06-15T18:16:47.284Z,0.00
2019-06-15T18:19:17.090Z,0.00
2019-06-15T18:21:51.104Z,0.20
2019-06-15T18:24:23.104Z,0.00
2019-06-15T18:26:53.725Z,0.03
2019-06-15T18:29:21.975Z,0.00
2019-06-15T18:31:52.952Z,0.10
2019-06-15T18:34:24.268Z,0.10
2019-06-15T18:37:00.264Z,0.00
2019-06-15T18:39:29.203Z,0.00
2019-06-15T18:41:57.556Z,0.00
2019-06-15T18:44:26.884Z,0.30
2019-06-15T18:46:56.363Z,0.00
2019-06-15T18:49:29.437Z,0.00
2019-06-15T18:51:57.743Z,0.10
2019-06-15T18:54:27.342Z,0.00
2019-06-15T18:56:57.837Z,0.00
2019-06-15T18:59:26.278Z,0.00
2019-06-15T19:01:56.092Z,0.07
2019-06-15T19:04:30.641Z,0.00
2019-06-15T19:06:58.085Z,0.10
2019-06-15T19:09:26.759Z,0.00
2019-06-15T19:11:56.650Z,0.00
2019-06-15T19:14:27.088Z,0.00
2019-06-15T19:16:56.695Z,0.10
2019-06-15T19:19:26.485Z,0.00
2019-06-15T19:21:57.204Z,0.00
2019-06-15T19:24:26.132Z,0.10
2019-06-15T19:26:54.796Z,0.00
2019-06-15T19:29:23.461Z,0.00
2019-06-15T19:31:54.197Z,0.00
2019-06-15T19:34:21.905Z,0.00
2019-06-15T19:36:50.062Z,0.00
2019-06-15T19:39:18.723Z,0.00
2019-06-15T19:41:47.076Z,0.10
2019-06-15T19:44:17.957Z,0.27
2019-06-15T19:46:47.732Z,0.00
2019-06-15T19:49:17.151Z,0.10
2019-06-15T19:51:47.257Z,0.17
2019-06-15T19:54:16.940Z,0.00
2019-06-15T19:56:46.716Z,0.00
2019-06-15T19:59:17.034Z,0.10
2019-06-15T20:01:46.793Z,0.00
2019-06-15T20:04:16.943Z,0.00
2019-06-15T20:06:46.127Z,0.30
2019-06-15T20:09:16.524Z,0.00
2019-06-15T20:11:47.070Z,0.00
2019-06-15T20:14:15.550Z,0.00
2019-06-15T20:16:46.972Z,0.10
2019-06-15T20:19:18.413Z,0.00
2019-06-15T20:21:47.305Z,0.10
2019-06-15T20:24:19.183Z,0.00
2019-06-15T20:26:56.148Z,0.00
2019-06-15T20:29:27.060Z,0.00
2019-06-15T20:31:58.106Z,0.10
2019-06-15T20:34:26.513Z,0.00
2019-06-15T20:36:56.180Z,0.00
2019-06-15T20:39:26.650Z,0.00
2019-06-15T20:41:56.402Z,0.10
2019-06-15T20:44:26.109Z,0.30
2019-06-15T20:46:57.024Z,0.00
2019-06-15T20:49:25.083Z,0.10
2019-06-15T20:51:56.124Z,0.20
2019-06-15T20:54:27.411Z,0.10
2019-06-15T20:57:00.504Z,0.63
2019-06-15T20:59:30.601Z,0.00
2019-06-15T21:01:59.301Z,0.20
2019-06-15T21:04:28.622Z,0.20
2019-06-15T21:06:57.147Z,0.00
2019-06-15T21:09:27.580Z,0.43
2019-06-15T21:12:09.629Z,0.00
2019-06-15T21:14:38.127Z,0.03
2019-06-15T21:17:14.256Z,0.00
2019-06-15T21:19:46.650Z,0.60
2019-06-15T21:22:18.223Z,0.20
2019-06-15T21:24:48.154Z,0.10
2019-06-15T21:27:16.716Z,0.00
2019-06-15T21:29:47.992Z,0.10
2019-06-15T21:32:17.297Z,0.20
2019-06-15T21:34:46.526Z,0.13
2019-06-15T21:37:16.862Z,0.00
2019-06-15T21:40:18.309Z,0.03
2019-06-15T21:42:49.021Z,0.07
2019-06-15T21:45:17.549Z,0.03
2019-06-15T21:47:46.456Z,0.00
2019-06-15T21:50:16.098Z,0.00
2019-06-15T21:52:45.954Z,0.07
2019-06-15T21:55:16.599Z,0.03
2019-06-15T21:57:46.592Z,0.10
2019-06-15T22:00:18.653Z,0.10
2019-06-15T22:02:47.102Z,0.00
2019-06-15T22:05:16.561Z,0.00
2019-06-15T22:07:44.646Z,0.10
2019-06-15T22:10:15.912Z,0.00
2019-06-15T22:12:43.870Z,0.00
2019-06-15T22:15:12.674Z,0.03
2019-06-15T22:17:41.290Z,0.10
2019-06-15T22:20:09.941Z,0.23
2019-06-15T22:22:37.668Z,0.10
2019-06-15T22:25:06.856Z,0.17
2019-06-15T22:27:36.253Z,0.00
2019-06-15T22:30:07.320Z,0.00
2019-06-15T22:32:34.301Z,0.00
2019-06-15T22:35:02.695Z,0.07
2019-06-15T22:37:30.865Z,0.10
2019-06-15T22:39:58.607Z,0.20
2019-06-15T22:42:26.369Z,0.00
2019-06-15T22:44:53.832Z,0.00
2019-06-15T22:47:21.550Z,0.20
2019-06-15T22:49:50.542Z,0.27
2019-06-15T22:52:18.372Z,0.00
2019-06-15T22:54:46.512Z,0.10
2019-06-15T22:57:16.578Z,0.00
2019-06-15T22:59:46.060Z,0.00
2019-06-15T23:02:13.361Z,0.10
2019-06-15T23:04:41.088Z,0.03
2019-06-15T23:07:09.126Z,0.00
2019-06-15T23:09:36.651Z,0.03
2019-06-15T23:12:04.061Z,0.00
2019-06-15T23:14:31.825Z,0.00
2019-06-15T23:16:59.510Z,0.00
2019-06-15T23:19:27.224Z,0.07
2019-06-15T23:21:57.177Z,0.10
2019-06-15T23:24:27.049Z,0.00
2019-06-15T23:26:56.932Z,0.00
2019-06-15T23:29:23.721Z,0.00
2019-06-15T23:31:51.172Z,0.00
2019-06-15T23:34:18.702Z,0.20
2019-06-15T23:36:56.323Z,0.70
2019-06-15T23:39:17.995Z,0.00
2019-06-15T23:41:46.918Z,0.10
2019-06-15T23:44:16.156Z,0.00
2019-06-15T23:46:43.925Z,0.10
2019-06-15T23:49:11.784Z,0.20
2019-06-15T23:51:39.377Z,0.17
2019-06-15T23:54:06.803Z,0.00
2019-06-15T23:56:36.704Z,0.43
2019-06-15T23:59:03.851Z,0.20
